createdAt,value
2023-05-14T00:01:12.052Z,99091.63
2023-05-14T00:04:13.817Z,99089.69
2023-05-14T00:07:15.418Z,99090.13
2023-05-14T00:10:19.095Z,99084.38
2023-05-14T00:13:20.686Z,99078.97
2023-05-14T00:16:22.293Z,99073.75
2023-05-14T00:19:23.871Z,99077.09
2023-05-14T00:22:25.552Z,99066.19
2023-05-14T00:25:27.246Z,99069.34
2023-05-14T00:28:28.780Z,99064.06
2023-05-14T00:31:30.587Z,99057.69
2023-05-14T00:34:32.172Z,99060.25
2023-05-14T00:37:33.751Z,99058.34
2023-05-14T00:40:35.517Z,99056.94
2023-05-14T00:43:37.090Z,99044.94
2023-05-14T00:46:38.714Z,99051.47
2023-05-14T00:49:41.182Z,99044.09
2023-05-14T00:52:43.197Z,99034.72
2023-05-14T00:55:46.755Z,99040.09
2023-05-14T00:58:48.378Z,99043.41
2023-05-14T01:01:49.999Z,99047.53
2023-05-14T01:04:53.370Z,99050.59
2023-05-14T01:08:07.689Z,99040.09
2023-05-14T01:11:42.201Z,99042.28
2023-05-14T01:15:11.857Z,99042.72
2023-05-14T01:18:14.471Z,99053.72
2023-05-14T01:21:25.324Z,99052.59
2023-05-14T01:24:27.075Z,99050.53
2023-05-14T01:27:35.819Z,99039.19
2023-05-14T01:30:48.841Z,99046.44
2023-05-14T01:33:51.894Z,99046.00
2023-05-14T01:36:56.456Z,99039.66
2023-05-14T01:39:59.067Z,99041.25
2023-05-14T01:43:01.255Z,99036.00
2023-05-14T01:46:04.871Z,99045.13
2023-05-14T01:49:06.699Z,99044.31
2023-05-14T01:52:08.540Z,99034.50
2023-05-14T01:55:10.986Z,99044.66
2023-05-14T01:58:12.643Z,99041.41
2023-05-14T02:01:14.220Z,99040.31
2023-05-14T02:04:15.964Z,99047.88
2023-05-14T02:07:17.653Z,99031.88
2023-05-14T02:10:21.114Z,99036.31
2023-05-14T02:13:26.137Z,99030.38
2023-05-14T02:16:27.815Z,99040.88
2023-05-14T02:19:30.086Z,99039.16
2023-05-14T02:22:31.905Z,99046.94
2023-05-14T02:25:33.624Z,99043.75
2023-05-14T02:28:35.229Z,99045.47
2023-05-14T02:31:37.138Z,99036.94
2023-05-14T02:34:38.801Z,99045.03
2023-05-14T02:37:40.334Z,99033.88
2023-05-14T02:40:41.999Z,99043.75
2023-05-14T02:43:43.589Z,99033.28
2023-05-14T02:46:45.180Z,99040.63
2023-05-14T02:49:46.828Z,99036.31
2023-05-14T02:52:48.439Z,99030.13
2023-05-14T02:55:50.031Z,99036.31
2023-05-14T02:58:51.596Z,99020.16
2023-05-14T03:01:53.461Z,99037.16
2023-05-14T03:04:55.538Z,99029.06
2023-05-14T03:07:57.174Z,99024.97
2023-05-14T03:10:58.779Z,99024.66
2023-05-14T03:14:00.412Z,99014.16
2023-05-14T03:17:02.494Z,99015.09
2023-05-14T03:20:04.489Z,99007.84
2023-05-14T03:23:06.318Z,99006.88
2023-05-14T03:26:08.347Z,99012.25
2023-05-14T03:29:10.859Z,99013.25
2023-05-14T03:32:12.545Z,99016.00
2023-05-14T03:35:14.272Z,99020.28
2023-05-14T03:38:15.865Z,99020.75
2023-05-14T03:41:18.999Z,99016.94
2023-05-14T03:44:20.547Z,99022.47
2023-05-14T03:47:22.446Z,99019.78
2023-05-14T03:50:25.715Z,99019.97
2023-05-14T03:53:27.408Z,99032.16
2023-05-14T03:56:28.980Z,99016.78
2023-05-14T03:59:30.500Z,99021.09
2023-05-14T04:02:32.345Z,99024.81
2023-05-14T04:05:35.026Z,99022.47
2023-05-14T04:08:36.708Z,99017.06
2023-05-14T04:11:38.444Z,99020.81
2023-05-14T04:14:40.246Z,99022.38
2023-05-14T04:17:42.523Z,99024.44
2023-05-14T04:20:44.132Z,99021.09
2023-05-14T04:23:45.743Z,99017.06
2023-05-14T04:26:47.274Z,99026.59
2023-05-14T04:29:49.798Z,99026.75
2023-05-14T04:32:51.660Z,99021.47
2023-05-14T04:35:53.490Z,99022.22
2023-05-14T04:38:55.033Z,99028.41
2023-05-14T04:41:56.637Z,99018.00
2023-05-14T04:44:58.708Z,99024.25
2023-05-14T04:48:00.455Z,99024.25
2023-05-14T04:51:02.087Z,99035.38
2023-05-14T04:54:03.715Z,99028.84
2023-05-14T04:57:05.381Z,99035.53
2023-05-14T05:00:09.589Z,99032.50
2023-05-14T05:03:11.188Z,99039.16
2023-05-14T05:06:12.886Z,99037.38
2023-05-14T05:09:14.573Z,99026.56
2023-05-14T05:12:16.192Z,99030.06
2023-05-14T05:15:17.837Z,99038.09
2023-05-14T05:18:19.557Z,99034.41
2023-05-14T05:21:21.234Z,99038.84
2023-05-14T05:24:22.795Z,99036.72
2023-05-14T05:27:24.440Z,99022.06
2023-05-14T05:30:26.330Z,99023.78
2023-05-14T05:33:27.995Z,99032.22
2023-05-14T05:36:29.622Z,99033.59
2023-05-14T05:39:34.710Z,99033.34
2023-05-14T05:42:36.439Z,99029.03
2023-05-14T05:45:37.969Z,99027.19
2023-05-14T05:48:39.520Z,99030.81
2023-05-14T05:51:41.054Z,99029.69
2023-05-14T05:54:42.583Z,99033.44
2023-05-14T05:57:44.174Z,99037.06
2023-05-14T06:00:47.095Z,99030.25
2023-05-14T06:03:48.771Z,99031.78
2023-05-14T06:06:50.493Z,99039.16
2023-05-14T06:09:52.042Z,99048.75
2023-05-14T06:12:53.577Z,99045.13
2023-05-14T06:15:55.235Z,99038.53
2023-05-14T06:18:57.859Z,99042.69
2023-05-14T06:21:59.653Z,99041.69
2023-05-14T06:25:01.259Z,99050.84
2023-05-14T06:28:02.918Z,99046.03
2023-05-14T06:31:04.498Z,99051.78
2023-05-14T06:34:06.126Z,99040.16
2023-05-14T06:37:08.038Z,99045.38
2023-05-14T06:40:10.783Z,99037.91
2023-05-14T06:43:12.377Z,99032.84
2023-05-14T06:46:13.936Z,99044.56
2023-05-14T06:49:15.542Z,99025.38
2023-05-14T06:52:17.155Z,99036.06
2023-05-14T06:55:18.921Z,99039.63
2023-05-14T06:58:20.530Z,99032.69
2023-05-14T07:01:22.112Z,99022.81
2023-05-14T07:04:23.748Z,99027.53
2023-05-14T07:07:25.498Z,99037.50
2023-05-14T07:10:27.204Z,99033.09
2023-05-14T07:13:28.936Z,99034.16
2023-05-14T07:16:30.887Z,99036.47
2023-05-14T07:19:32.536Z,99026.56
2023-05-14T07:22:34.032Z,99032.63
2023-05-14T07:25:35.588Z,99017.66
2023-05-14T07:28:37.196Z,99022.03
2023-05-14T07:31:38.723Z,99020.78
2023-05-14T07:34:40.452Z,99025.56
2023-05-14T07:37:42.947Z,99020.84
2023-05-14T07:40:44.648Z,99014.91
2023-05-14T07:43:46.154Z,99021.28
2023-05-14T07:46:47.942Z,99015.03
2023-05-14T07:49:49.556Z,99014.78
2023-05-14T07:52:51.179Z,99011.44
2023-05-14T07:55:52.816Z,99005.91
2023-05-14T07:58:54.422Z,99004.72
2023-05-14T08:01:56.783Z,99013.44
2023-05-14T08:04:58.471Z,99009.16
2023-05-14T08:08:00.212Z,99009.75
2023-05-14T08:11:02.728Z,99007.03
2023-05-14T08:14:04.262Z,99008.84
2023-05-14T08:17:06.158Z,99003.03
2023-05-14T08:20:09.843Z,98998.78
2023-05-14T08:23:11.555Z,99001.63
2023-05-14T08:26:13.081Z,98998.25
2023-05-14T08:29:16.534Z,99004.31
2023-05-14T08:32:23.946Z,98997.75
2023-05-14T08:35:26.048Z,98990.81
2023-05-14T08:38:27.640Z,98981.47
2023-05-14T08:41:29.880Z,98998.88
2023-05-14T08:44:38.991Z,98990.97
2023-05-14T08:47:40.702Z,98986.03
2023-05-14T08:50:43.763Z,98985.34
2023-05-14T08:53:45.530Z,98990.78
2023-05-14T08:56:47.109Z,98985.47
2023-05-14T08:59:48.670Z,98975.91
2023-05-14T09:02:51.521Z,98972.38
2023-05-14T09:05:53.720Z,98976.28
2023-05-14T09:08:56.017Z,98968.44
2023-05-14T09:11:57.616Z,98967.84
2023-05-14T09:14:59.353Z,98956.66
2023-05-14T09:18:01.068Z,98933.25
2023-05-14T09:21:02.933Z,98956.53
2023-05-14T09:24:04.672Z,98957.41
2023-05-14T09:27:07.024Z,98949.69
2023-05-14T09:30:13.091Z,98954.41
2023-05-14T09:33:25.474Z,98946.97
2023-05-14T09:36:27.295Z,98941.63
2023-05-14T09:39:30.263Z,98946.16
2023-05-14T09:42:32.595Z,98939.72
2023-05-14T09:45:35.089Z,98943.25
2023-05-14T09:48:36.698Z,98937.00
2023-05-14T09:51:38.502Z,98946.00
2023-05-14T09:54:40.506Z,98945.03
2023-05-14T09:57:42.206Z,98947.13
2023-05-14T10:00:46.154Z,98938.59
2023-05-14T10:03:48.993Z,98942.47
2023-05-14T10:06:53.236Z,98933.34
2023-05-14T10:09:59.759Z,98944.28
2023-05-14T10:13:08.399Z,98935.00
2023-05-14T10:16:24.353Z,98930.69
2023-05-14T10:19:26.452Z,98927.63
2023-05-14T10:22:33.480Z,98916.84
2023-05-14T10:25:36.545Z,98927.03
2023-05-14T10:28:38.240Z,98926.72
2023-05-14T10:32:06.950Z,98927.16
2023-05-14T10:35:25.700Z,98919.31
2023-05-14T10:38:33.913Z,98923.13
2023-05-14T10:41:35.591Z,98913.00
2023-05-14T10:44:45.392Z,98913.03
2023-05-14T10:47:47.507Z,98900.53
2023-05-14T10:50:51.934Z,98902.06
2023-05-14T10:53:53.506Z,98888.56
2023-05-14T10:56:59.215Z,98887.84
2023-05-14T11:00:01.787Z,98869.97
2023-05-14T11:03:05.681Z,98888.44
2023-05-14T11:06:08.341Z,98882.91
2023-05-14T11:09:10.712Z,98887.22
2023-05-14T11:12:12.316Z,98884.09
2023-05-14T11:15:21.170Z,98884.13
2023-05-14T11:18:30.371Z,98877.44
2023-05-14T11:21:34.972Z,98874.50
2023-05-14T11:24:36.618Z,98873.97
2023-05-14T11:27:39.343Z,98878.78
2023-05-14T11:30:40.951Z,98874.25
2023-05-14T11:33:42.900Z,98873.28
2023-05-14T11:36:44.536Z,98865.22
2023-05-14T11:39:52.147Z,98851.69
2023-05-14T11:42:53.903Z,98871.19
2023-05-14T11:45:55.929Z,98849.19
2023-05-14T11:48:57.602Z,98867.81
2023-05-14T11:52:00.551Z,98849.13
2023-05-14T11:55:02.377Z,98857.53
2023-05-14T11:58:03.981Z,98854.47
2023-05-14T12:01:05.619Z,98856.81
2023-05-14T12:04:07.333Z,98858.03
2023-05-14T12:07:15.043Z,98852.88
2023-05-14T12:10:16.609Z,98848.66
2023-05-14T12:13:18.386Z,98827.38
2023-05-14T12:16:20.693Z,98828.44
2023-05-14T12:19:23.503Z,98830.78
2023-05-14T12:22:25.138Z,98831.00
2023-05-14T12:25:26.846Z,98827.34
2023-05-14T12:28:28.686Z,98832.16
2023-05-14T12:31:30.423Z,98825.38
2023-05-14T12:34:32.058Z,98822.91
2023-05-14T12:37:34.185Z,98821.84
2023-05-14T12:40:36.451Z,98814.78
2023-05-14T12:43:37.949Z,98804.78
2023-05-14T12:46:39.592Z,98802.25
2023-05-14T12:49:41.179Z,98796.69
2023-05-14T12:52:42.836Z,98794.31
2023-05-14T12:55:44.397Z,98791.03
2023-05-14T12:58:46.821Z,98790.09
2023-05-14T13:01:48.344Z,98790.69
2023-05-14T13:04:50.006Z,98785.84
2023-05-14T13:07:53.256Z,98792.00
2023-05-14T13:10:56.252Z,98786.16
2023-05-14T13:13:59.034Z,98774.75
2023-05-14T13:17:00.965Z,98783.91
2023-05-14T13:20:02.695Z,98774.75
2023-05-14T13:23:04.452Z,98777.59
2023-05-14T13:26:06.144Z,98782.63
2023-05-14T13:29:07.694Z,98779.00
2023-05-14T13:32:09.232Z,98777.97
2023-05-14T13:35:11.433Z,98781.91
2023-05-14T13:38:12.966Z,98790.13
2023-05-14T13:41:14.648Z,98764.59
2023-05-14T13:44:16.240Z,98770.56
2023-05-14T13:47:18.025Z,98767.78
2023-05-14T13:50:19.773Z,98755.41
2023-05-14T13:53:23.092Z,98751.06
2023-05-14T13:56:24.821Z,98751.16
2023-05-14T13:59:27.952Z,98746.81
2023-05-14T14:02:29.511Z,98743.94
2023-05-14T14:05:31.767Z,98727.94
2023-05-14T14:08:33.473Z,98728.53
2023-05-14T14:11:35.115Z,98735.47
2023-05-14T14:14:36.724Z,98728.97
2023-05-14T14:17:39.228Z,98722.59
2023-05-14T14:20:40.934Z,98720.38
2023-05-14T14:23:42.489Z,98723.75
2023-05-14T14:26:44.037Z,98720.53
2023-05-14T14:29:45.744Z,98728.19
2023-05-14T14:32:49.432Z,98726.41
2023-05-14T14:35:51.771Z,98723.69
2023-05-14T14:38:53.324Z,98719.97
2023-05-14T14:41:55.256Z,98729.78
2023-05-14T14:44:56.915Z,98722.16
2023-05-14T14:48:27.493Z,98714.16
2023-05-14T14:51:30.225Z,98704.94
2023-05-14T14:54:31.895Z,98713.75
2023-05-14T14:57:33.421Z,98722.00
2023-05-14T15:00:35.144Z,98717.22
2023-05-14T15:03:36.858Z,98719.03
2023-05-14T15:06:38.411Z,98703.22
2023-05-14T15:09:39.999Z,98692.69
2023-05-14T15:12:41.734Z,98699.69
2023-05-14T15:15:43.520Z,98695.81
2023-05-14T15:18:45.157Z,98704.41
2023-05-14T15:21:46.773Z,98703.13
2023-05-14T15:24:48.332Z,98697.84
2023-05-14T15:27:50.758Z,98705.38
2023-05-14T15:30:52.861Z,98692.84
2023-05-14T15:33:56.002Z,98701.03
2023-05-14T15:36:57.565Z,98678.94
2023-05-14T15:39:59.097Z,98698.19
2023-05-14T15:43:00.835Z,98697.66
2023-05-14T15:46:02.522Z,98686.22
2023-05-14T15:49:04.043Z,98702.31
2023-05-14T15:52:05.967Z,98690.34
2023-05-14T15:55:07.889Z,98692.75
2023-05-14T15:58:09.447Z,98697.53
2023-05-14T16:01:11.516Z,98703.13
2023-05-14T16:04:13.203Z,98697.28
2023-05-14T16:07:15.268Z,98689.66
2023-05-14T16:10:16.814Z,98687.97
2023-05-14T16:13:18.413Z,98680.19
2023-05-14T16:16:22.809Z,98681.66
2023-05-14T16:19:24.509Z,98686.59
2023-05-14T16:22:26.787Z,98681.34
2023-05-14T16:25:30.510Z,98677.66
2023-05-14T16:28:32.381Z,98678.09
2023-05-14T16:31:34.085Z,98689.03
2023-05-14T16:34:35.814Z,98688.06
2023-05-14T16:37:37.418Z,98678.19
2023-05-14T16:40:39.071Z,98676.97
2023-05-14T16:43:40.818Z,98687.81
2023-05-14T16:46:42.499Z,98682.13
2023-05-14T16:49:44.022Z,98681.19
2023-05-14T16:52:47.646Z,98671.16
2023-05-14T16:55:49.581Z,98684.66
2023-05-14T16:58:51.284Z,98684.59
2023-05-14T17:01:53.028Z,98675.34
2023-05-14T17:04:55.307Z,98684.97
2023-05-14T17:07:56.927Z,98689.97
2023-05-14T17:10:58.594Z,98676.69
2023-05-14T17:14:00.145Z,98682.31
2023-05-14T17:17:02.075Z,98684.78
2023-05-14T17:23:07.435Z,98681.44
2023-05-14T17:26:09.106Z,98692.03
2023-05-14T17:29:10.722Z,98685.34
2023-05-14T17:32:12.417Z,98691.22
2023-05-14T17:35:14.007Z,98683.81
2023-05-14T17:38:15.617Z,98683.47
2023-05-14T17:41:17.300Z,98681.97
2023-05-14T17:44:18.970Z,98695.75
2023-05-14T17:47:21.041Z,98705.16
2023-05-14T17:50:22.642Z,98702.84
2023-05-14T17:53:24.248Z,98703.25
2023-05-14T17:56:26.316Z,98704.06
2023-05-14T17:59:27.937Z,98699.31
2023-05-14T18:02:29.575Z,98714.22
2023-05-14T18:05:31.810Z,98711.06
2023-05-14T18:08:33.419Z,98720.84
2023-05-14T18:11:35.571Z,98723.16
2023-05-14T18:14:37.116Z,98715.63
2023-05-14T18:17:38.775Z,98726.03
2023-05-14T18:20:40.495Z,98723.19
2023-05-14T18:23:42.012Z,98722.25
2023-05-14T18:26:43.538Z,98739.72
2023-05-14T18:29:45.351Z,98735.31
2023-05-14T18:32:47.169Z,98745.28
2023-05-14T18:35:49.103Z,98744.81
2023-05-14T18:38:50.636Z,98742.75
2023-05-14T18:41:52.290Z,98735.53
2023-05-14T18:44:54.137Z,98751.91
2023-05-14T18:47:56.255Z,98756.34
2023-05-14T18:50:57.820Z,98758.97
2023-05-14T18:53:59.363Z,98752.19
2023-05-14T18:57:01.656Z,98741.16
2023-05-14T19:00:04.026Z,98764.59
2023-05-14T19:03:05.713Z,98763.75
2023-05-14T19:06:07.864Z,98766.06
2023-05-14T19:09:10.845Z,98767.13
2023-05-14T19:12:12.516Z,98769.38
2023-05-14T19:15:14.047Z,98777.44
2023-05-14T19:18:17.571Z,98778.75
2023-05-14T19:21:19.233Z,98774.59
2023-05-14T19:24:20.877Z,98783.03
2023-05-14T19:27:24.077Z,98780.47
2023-05-14T19:30:25.632Z,98782.16
2023-05-14T19:33:27.894Z,98792.50
2023-05-14T19:36:31.614Z,98791.19
2023-05-14T19:39:33.246Z,98788.31
2023-05-14T19:42:34.826Z,98780.72
2023-05-14T19:45:39.370Z,98788.16
2023-05-14T19:48:41.268Z,98782.00
2023-05-14T19:51:42.782Z,98794.91
2023-05-14T19:54:44.320Z,98803.75
2023-05-14T19:57:45.885Z,98813.50
2023-05-14T20:00:50.996Z,98796.56
2023-05-14T20:03:52.598Z,98803.59
2023-05-14T20:06:54.250Z,98806.41
2023-05-14T20:09:55.752Z,98801.91
2023-05-14T20:12:57.314Z,98797.31
2023-05-14T20:15:59.757Z,98797.03
2023-05-14T20:19:01.519Z,98793.88
2023-05-14T20:22:05.432Z,98789.47
2023-05-14T20:25:07.571Z,98795.66
2023-05-14T20:28:09.064Z,98781.56
2023-05-14T20:31:10.622Z,98788.84
2023-05-14T20:34:12.213Z,98799.25
2023-05-14T20:37:13.737Z,98790.00
2023-05-14T20:40:15.674Z,98776.81
2023-05-14T20:43:17.389Z,98783.22
2023-05-14T20:46:19.111Z,98773.34
2023-05-14T20:49:20.784Z,98770.78
2023-05-14T20:52:22.540Z,98773.84
2023-05-14T20:55:24.322Z,98761.84
2023-05-14T20:58:26.032Z,98770.88
2023-05-14T21:01:27.660Z,98767.47
2023-05-14T21:04:29.297Z,98774.50
2023-05-14T21:07:31.757Z,98772.16
2023-05-14T21:10:33.348Z,98769.56
2023-05-14T21:13:34.929Z,98766.81
2023-05-14T21:16:36.566Z,98765.97
2023-05-14T21:19:38.216Z,98756.25
2023-05-14T21:22:39.876Z,98766.69
2023-05-14T21:25:41.537Z,98771.63
2023-05-14T21:28:43.067Z,98752.53
2023-05-14T21:31:44.753Z,98761.38
2023-05-14T21:34:46.407Z,98764.59
2023-05-14T21:37:47.898Z,98769.16
2023-05-14T21:40:49.514Z,98764.72
2023-05-14T21:43:51.060Z,98750.03
2023-05-14T21:46:52.570Z,98758.44
2023-05-14T21:49:54.210Z,98767.53
2023-05-14T21:52:55.724Z,98746.38
2023-05-14T21:55:57.386Z,98761.03
2023-05-14T21:58:59.495Z,98749.78
2023-05-14T22:05:05.794Z,98756.16
2023-05-14T22:08:07.530Z,98758.00
2023-05-14T22:11:09.069Z,98756.00
2023-05-14T22:14:10.742Z,98772.00
2023-05-14T22:17:12.730Z,98769.63
2023-05-14T22:20:14.547Z,98764.59
2023-05-14T22:23:16.190Z,98771.28
2023-05-14T22:26:17.817Z,98775.31
2023-05-14T22:29:19.412Z,98772.09
2023-05-14T22:32:21.231Z,98762.47
2023-05-14T22:35:22.884Z,98769.22
2023-05-14T22:38:24.599Z,98773.13
2023-05-14T22:41:26.661Z,98776.09
2023-05-14T22:44:30.064Z,98778.56
2023-05-14T22:47:31.915Z,98782.31
2023-05-14T22:50:33.597Z,98772.16
2023-05-14T22:53:35.294Z,98772.94
2023-05-14T22:56:37.877Z,98770.84
2023-05-14T22:59:39.535Z,98770.44
2023-05-14T23:02:41.219Z,98767.63
2023-05-14T23:05:42.795Z,98762.81
2023-05-14T23:08:44.324Z,98766.69
2023-05-14T23:11:46.232Z,98771.38
2023-05-14T23:14:47.825Z,98765.03
2023-05-14T23:17:49.517Z,98773.16
2023-05-14T23:20:51.118Z,98764.75
2023-05-14T23:23:52.675Z,98764.06
2023-05-14T23:26:54.392Z,98765.91
2023-05-14T23:29:55.973Z,98763.59
2023-05-14T23:32:57.623Z,98764.72
2023-05-14T23:35:59.279Z,98771.44
2023-05-14T23:39:01.003Z,98768.66
2023-05-14T23:42:02.650Z,98770.47
2023-05-14T23:45:05.388Z,98766.53
2023-05-14T23:48:07.255Z,98766.19
2023-05-14T23:51:08.970Z,98759.09
2023-05-14T23:54:10.720Z,98754.38
2023-05-14T23:57:14.499Z,98764.53
